EDT,Max TemperatureF,Mean TemperatureF,Min TemperatureF,Max Dew PointF,MeanDew PointF,Min DewpointF,Max Humidity, Mean Humidity, Min Humidity, Max Sea Level PressureIn, Mean Sea Level PressureIn, Min Sea Level PressureIn, Max VisibilityMiles, Mean VisibilityMiles, Min VisibilityMiles, Max Wind SpeedMPH, Mean Wind SpeedMPH, Max Gust SpeedMPH,PrecipitationIn, CloudCover, Events, WindDirDegrees
2012-3-1,41,40,39,,,,,,,29.76,29.71,29.67,9,8,6,10,8,,0.00,8,,3
2012-3-2,39,36,33,25,20,16,56,50,45,30.15,30.11,30.09,10,10,10,9,5,,0.00,8,,88
2012-3-3,51,50,50,,,,,,,29.49,29.47,29.44,10,5,0,21,13,,0.00,6,,245
2012-3-4,42,42,39,27,26,25,57,55,53,29.60,29.58,29.56,10,10,10,12,6,,0.00,2,,307
2012-3-5,37,37,37,18,18,18,45,45,45,30.03,30.02,30.02,10,10,10,17,15,23,0.00,0,,285
2012-3-6,32,29,28,12,12,12,51,47,44,30.61,30.61,30.60,10,10,10,12,11,21,0.00,0,,317
2012-3-7,50,50,48,39,38,37,66,65,62,30.51,30.44,30.38,10,10,10,21,20,29,0.00,0,,220
2012-3-8,55,54,53,43,39,27,63,56,35,30.25,30.15,30.06,10,10,8,26,23,31,0.00,2,,217
2012-3-9,44,43,42,21,21,21,42,40,39,30.08,30.08,30.08,10,10,10,12,12,,0.00,2,,313
2012-3-10,,,,,,,,,,,,,,,,,,,,,,
2012-3-10,,,,,,,,,,,,,,,,,,,,,,
2012-3-12,57,57,57,45,44,43,63,62,59,30.31,30.27,30.23,10,10,10,12,9,,0.00,2,,210
2012-3-13,50,49,46,,,,,,,30.09,30.01,29.96,7,4,0,20,11,,0.00,8,Fog,231
2012-3-14,64,61,60,45,39,34,55,43,32,30.12,30.10,30.08,10,10,10,14,13,,0.00,0,,294
2012-3-15,,,,,,,,,,,,,,,,,,,,,,
2012-3-16,44,43,42,7,7,7,21,21,21,30.25,30.18,30.12,10,8,3,5,1,,0.00,8,,110
2012-3-17,53,52,50,36,32,27,54,48,40,30.37,30.35,30.32,10,10,10,13,4,,0.00,6,,108
2012-3-18,51,48,44,,,,,,,30.38,30.32,30.23,10,8,1,15,10,,0.00,3,,234
2012-3-19,,,,,,,,,,,,,,,,,,,,,,
2012-3-20,,,,,,,,,,30.35,30.33,30.30,10,8,0,5,2,,0.00,1,Fog,188
2012-3-21,,,,,,,,,,30.39,30.36,30.32,10,8,0,14,5,,0.00,5,Fog,192
2012-3-22,66,65,64,55,55,55,73,71,68,30.26,30.19,30.11,10,10,10,14,10,,0.00,3,,233
2012-3-23,,,,,,,,,,,,,,,,,,,,,,
2012-3-24,,,,,,,,,,,,,,,,,,,,,,
2012-3-25,48,45,44,43,41,39,87,80,76,29.87,29.82,29.75,10,10,7,12,6,,0.00,8,,77
2012-3-26,48,,48,12,12,12,24,24,24,29.76,29.76,29.76,10,10,10,17,17,28,0.00,0,,340
2012-3-27,46,38,32,3,2,1,27,22,17,30.20,30.17,30.09,10,10,10,20,17,23,0.00,0,,315
2012-3-28,,,,,,,,,,,,,,,,,,,,,,
2012-3-29,51,50,50,39,36,34,62,57,54,29.82,29.75,29.66,10,10,10,17,12,,0.00,6,,324
2012-3-30,50,48,48,25,18,12,37,30,24,30.01,30.00,29.99,10,10,10,14,12,,0.00,0,,285
2012-3-31,,,,,,,,,,,,,,,,,,,,,,